sensor_id;sensor_type;location;lat;lon;timestamp;pressure;altitude;pressure_sealevel;temperature;humidity
45525;BME280;31437;58.350;13.828;2022-10-16T00:00:52;99252.38;;;10.41;100.00
45525;BME280;31437;58.350;13.828;2022-10-16T00:03:17;99241.75;;;10.43;100.00
45525;BME280;31437;58.350;13.828;2022-10-16T00:05:43;99263.56;;;10.43;100.00
45525;BME280;31437;58.350;13.828;2022-10-16T00:08:09;99263.69;;;10.42;100.00
45525;BME280;31437;58.350;13.828;2022-10-16T00:10:34;99281.72;;;10.34;100.00
45525;BME280;31437;58.350;13.828;2022-10-16T00:13:00;99275.38;;;10.23;100.00
45525;BME280;31437;58.350;13.828;2022-10-16T00:15:25;99269.06;;;10.13;100.00
45525;BME280;31437;58.350;13.828;2022-10-16T00:17:50;99295.47;;;10.10;100.00
45525;BME280;31437;58.350;13.828;2022-10-16T00:20:16;99289.69;;;10.05;100.00
45525;BME280;31437;58.350;13.828;2022-10-16T00:22:41;99297.13;;;9.98;100.00
45525;BME280;31437;58.350;13.828;2022-10-16T00:25:06;99285.28;;;9.93;100.00
45525;BME280;31437;58.350;13.828;2022-10-16T00:27:32;99288.94;;;9.90;100.00
45525;BME280;31437;58.350;13.828;2022-10-16T00:29:58;99303.06;;;9.88;100.00
45525;BME280;31437;58.350;13.828;2022-10-16T00:32:23;99295.31;;;9.86;100.00
45525;BME280;31437;58.350;13.828;2022-10-16T00:34:48;99294.69;;;9.83;100.00
45525;BME280;31437;58.350;13.828;2022-10-16T00:37:13;99291.41;;;9.79;100.00
45525;BME280;31437;58.350;13.828;2022-10-16T00:39:39;99297.69;;;9.76;100.00
45525;BME280;31437;58.350;13.828;2022-10-16T00:42:04;99292.53;;;9.75;100.00
45525;BME280;31437;58.350;13.828;2022-10-16T00:47:25;99250.50;;;9.64;100.00
45525;BME280;31437;58.350;13.828;2022-10-16T00:49:53;99259.78;;;9.55;100.00
45525;BME280;31437;58.350;13.828;2022-10-16T00:52:21;99264.16;;;9.42;100.00
45525;BME280;31437;58.350;13.828;2022-10-16T00:54:47;99261.44;;;9.29;100.00
45525;BME280;31437;58.350;13.828;2022-10-16T00:57:14;99264.00;;;9.16;100.00
45525;BME280;31437;58.350;13.828;2022-10-16T00:59:40;99249.66;;;8.95;100.00
45525;BME280;31437;58.350;13.828;2022-10-16T01:02:07;99247.44;;;8.89;100.00
45525;BME280;31437;58.350;13.828;2022-10-16T01:04:40;99244.84;;;8.74;100.00
45525;BME280;31437;58.350;13.828;2022-10-16T01:12:36;99267.91;;;8.37;100.00
45525;BME280;31437;58.350;13.828;2022-10-16T01:25:43;99232.13;;;8.39;100.00
45525;BME280;31437;58.350;13.828;2022-10-16T01:28:15;99239.19;;;8.37;100.00
45525;BME280;31437;58.350;13.828;2022-10-16T01:30:42;99228.06;;;8.34;100.00
45525;BME280;31437;58.350;13.828;2022-10-16T01:33:14;99226.47;;;8.31;100.00
45525;BME280;31437;58.350;13.828;2022-10-16T01:35:43;99219.41;;;8.33;100.00
45525;BME280;31437;58.350;13.828;2022-10-16T01:38:11;99228.91;;;8.34;100.00
45525;BME280;31437;58.350;13.828;2022-10-16T01:40:38;99222.66;;;8.37;100.00
45525;BME280;31437;58.350;13.828;2022-10-16T01:43:27;99220.53;;;8.44;100.00
45525;BME280;31437;58.350;13.828;2022-10-16T01:45:50;99219.44;;;8.48;100.00
45525;BME280;31437;58.350;13.828;2022-10-16T01:48:17;99224.47;;;8.51;100.00
45525;BME280;31437;58.350;13.828;2022-10-16T01:50:43;99235.66;;;8.53;100.00
45525;BME280;31437;58.350;13.828;2022-10-16T01:53:10;99239.69;;;8.58;100.00
45525;BME280;31437;58.350;13.828;2022-10-16T01:55:38;99249.41;;;8.71;100.00
45525;BME280;31437;58.350;13.828;2022-10-16T01:58:06;99241.84;;;8.80;100.00
45525;BME280;31437;58.350;13.828;2022-10-16T02:00:32;99244.63;;;8.92;100.00
45525;BME280;31437;58.350;13.828;2022-10-16T02:02:58;99232.75;;;9.00;100.00
45525;BME280;31437;58.350;13.828;2022-10-16T02:08:04;99230.47;;;9.08;100.00
45525;BME280;31437;58.350;13.828;2022-10-16T02:10:29;99231.34;;;9.09;100.00
45525;BME280;31437;58.350;13.828;2022-10-16T02:13:39;99232.44;;;9.05;100.00
45525;BME280;31437;58.350;13.828;2022-10-16T02:15:44;99222.38;;;8.99;100.00
45525;BME280;31437;58.350;13.828;2022-10-16T02:18:09;99222.75;;;8.93;100.00
45525;BME280;31437;58.350;13.828;2022-10-16T02:20:49;99216.06;;;8.89;100.00
45525;BME280;31437;58.350;13.828;2022-10-16T02:23:18;99208.59;;;8.82;100.00
45525;BME280;31437;58.350;13.828;2022-10-16T02:25:44;99204.66;;;8.75;100.00
45525;BME280;31437;58.350;13.828;2022-10-16T02:28:24;99206.00;;;8.68;100.00
45525;BME280;31437;58.350;13.828;2022-10-16T02:30:54;99207.22;;;8.62;100.00
45525;BME280;31437;58.350;13.828;2022-10-16T02:33:22;99204.03;;;8.57;100.00
45525;BME280;31437;58.350;13.828;2022-10-16T02:35:48;99212.13;;;8.53;100.00
45525;BME280;31437;58.350;13.828;2022-10-16T02:38:15;99215.81;;;8.50;100.00
45525;BME280;31437;58.350;13.828;2022-10-16T02:40:41;99229.06;;;8.47;100.00
45525;BME280;31437;58.350;13.828;2022-10-16T02:43:07;99242.28;;;8.44;100.00
45525;BME280;31437;58.350;13.828;2022-10-16T02:45:34;99240.72;;;8.41;100.00
45525;BME280;31437;58.350;13.828;2022-10-16T02:47:59;99240.72;;;8.41;100.00
45525;BME280;31437;58.350;13.828;2022-10-16T02:50:24;99246.13;;;8.38;100.00
45525;BME280;31437;58.350;13.828;2022-10-16T02:52:50;99249.28;;;8.44;100.00
45525;BME280;31437;58.350;13.828;2022-10-16T02:55:15;99245.84;;;8.43;100.00
45525;BME280;31437;58.350;13.828;2022-10-16T02:57:40;99240.53;;;8.45;100.00
45525;BME280;31437;58.350;13.828;2022-10-16T03:00:06;99250.88;;;8.46;100.00
45525;BME280;31437;58.350;13.828;2022-10-16T03:02:32;99243.88;;;8.47;100.00
45525;BME280;31437;58.350;13.828;2022-10-16T03:04:57;99238.09;;;8.41;100.00
45525;BME280;31437;58.350;13.828;2022-10-16T03:07:22;99233.13;;;8.37;100.00
45525;BME280;31437;58.350;13.828;2022-10-16T03:09:48;99224.81;;;8.30;100.00
45525;BME280;31437;58.350;13.828;2022-10-16T03:12:13;99214.34;;;8.30;100.00
45525;BME280;31437;58.350;13.828;2022-10-16T03:14:38;99218.81;;;8.28;100.00
45525;BME280;31437;58.350;13.828;2022-10-16T03:17:04;99217.34;;;8.24;100.00
45525;BME280;31437;58.350;13.828;2022-10-16T03:19:30;99217.53;;;8.21;100.00
45525;BME280;31437;58.350;13.828;2022-10-16T03:21:55;99208.00;;;8.20;100.00
45525;BME280;31437;58.350;13.828;2022-10-16T03:24:20;99216.13;;;8.15;100.00
45525;BME280;31437;58.350;13.828;2022-10-16T03:26:46;99209.38;;;8.11;100.00
45525;BME280;31437;58.350;13.828;2022-10-16T03:29:11;99208.72;;;8.08;100.00
45525;BME280;31437;58.350;13.828;2022-10-16T03:31:36;99205.47;;;8.04;100.00
45525;BME280;31437;58.350;13.828;2022-10-16T03:34:02;99203.88;;;8.02;100.00
45525;BME280;31437;58.350;13.828;2022-10-16T03:36:27;99208.34;;;8.00;100.00
45525;BME280;31437;58.350;13.828;2022-10-16T03:38:52;99207.97;;;7.91;100.00
45525;BME280;31437;58.350;13.828;2022-10-16T03:41:17;99202.16;;;7.86;100.00
45525;BME280;31437;58.350;13.828;2022-10-16T03:43:43;99198.13;;;7.81;100.00
45525;BME280;31437;58.350;13.828;2022-10-16T03:46:08;99204.56;;;7.75;100.00
45525;BME280;31437;58.350;13.828;2022-10-16T03:48:33;99200.44;;;7.71;100.00
45525;BME280;31437;58.350;13.828;2022-10-16T03:50:58;99203.50;;;7.63;100.00
45525;BME280;31437;58.350;13.828;2022-10-16T03:53:24;99214.19;;;7.59;100.00
45525;BME280;31437;58.350;13.828;2022-10-16T03:55:49;99210.19;;;7.53;100.00
45525;BME280;31437;58.350;13.828;2022-10-16T03:58:15;99209.59;;;7.48;100.00
45525;BME280;31437;58.350;13.828;2022-10-16T04:00:43;99215.06;;;7.43;100.00
45525;BME280;31437;58.350;13.828;2022-10-16T04:03:09;99224.94;;;7.38;100.00
45525;BME280;31437;58.350;13.828;2022-10-16T04:05:35;99221.75;;;7.33;100.00
45525;BME280;31437;58.350;13.828;2022-10-16T04:08:00;99227.13;;;7.30;100.00
45525;BME280;31437;58.350;13.828;2022-10-16T04:10:26;99218.66;;;7.26;100.00
45525;BME280;31437;58.350;13.828;2022-10-16T04:12:51;99218.78;;;7.23;100.00
45525;BME280;31437;58.350;13.828;2022-10-16T04:15:16;99217.22;;;7.21;100.00
45525;BME280;31437;58.350;13.828;2022-10-16T04:17:42;99221.84;;;7.16;100.00
45525;BME280;31437;58.350;13.828;2022-10-16T04:20:07;99218.41;;;7.15;100.00
45525;BME280;31437;58.350;13.828;2022-10-16T04:22:33;99223.50;;;7.17;100.00
45525;BME280;31437;58.350;13.828;2022-10-16T04:24:58;99231.09;;;7.21;100.00
45525;BME280;31437;58.350;13.828;2022-10-16T04:27:23;99226.59;;;7.23;100.00
45525;BME280;31437;58.350;13.828;2022-10-16T04:29:49;99228.38;;;7.23;100.00
45525;BME280;31437;58.350;13.828;2022-10-16T04:32:14;99230.16;;;7.22;100.00
45525;BME280;31437;58.350;13.828;2022-10-16T04:34:39;99233.69;;;7.21;100.00
45525;BME280;31437;58.350;13.828;2022-10-16T04:37:05;99237.31;;;7.19;100.00
45525;BME280;31437;58.350;13.828;2022-10-16T04:39:30;99253.97;;;7.16;100.00
45525;BME280;31437;58.350;13.828;2022-10-16T04:41:55;99262.03;;;7.12;100.00
45525;BME280;31437;58.350;13.828;2022-10-16T04:44:20;99270.97;;;7.08;100.00
45525;BME280;31437;58.350;13.828;2022-10-16T04:46:46;99271.28;;;7.01;100.00
45525;BME280;31437;58.350;13.828;2022-10-16T04:49:11;99263.03;;;6.93;100.00
45525;BME280;31437;58.350;13.828;2022-10-16T04:51:36;99268.59;;;6.87;100.00
45525;BME280;31437;58.350;13.828;2022-10-16T04:54:02;99269.84;;;6.80;100.00
45525;BME280;31437;58.350;13.828;2022-10-16T04:56:27;99280.75;;;6.71;100.00
45525;BME280;31437;58.350;13.828;2022-10-16T04:58:52;99277.88;;;6.59;100.00
45525;BME280;31437;58.350;13.828;2022-10-16T05:01:17;99277.59;;;6.48;100.00
45525;BME280;31437;58.350;13.828;2022-10-16T05:03:43;99276.28;;;6.40;100.00
45525;BME280;31437;58.350;13.828;2022-10-16T05:06:08;99273.16;;;6.33;100.00
45525;BME280;31437;58.350;13.828;2022-10-16T05:08:33;99278.75;;;6.25;100.00
45525;BME280;31437;58.350;13.828;2022-10-16T05:10:59;99281.72;;;6.18;100.00
45525;BME280;31437;58.350;13.828;2022-10-16T05:13:25;99255.94;;;6.13;100.00
45525;BME280;31437;58.350;13.828;2022-10-16T05:15:50;99244.84;;;6.09;100.00
45525;BME280;31437;58.350;13.828;2022-10-16T05:18:16;99258.19;;;6.03;100.00
45525;BME280;31437;58.350;13.828;2022-10-16T05:20:41;99258.34;;;6.00;100.00
45525;BME280;31437;58.350;13.828;2022-10-16T05:23:06;99260.00;;;6.01;100.00
45525;BME280;31437;58.350;13.828;2022-10-16T05:25:32;99263.59;;;5.99;100.00
45525;BME280;31437;58.350;13.828;2022-10-16T05:27:57;99268.75;;;6.00;100.00
45525;BME280;31437;58.350;13.828;2022-10-16T05:30:22;99266.06;;;6.02;100.00
45525;BME280;31437;58.350;13.828;2022-10-16T05:32:48;99277.97;;;6.06;100.00
45525;BME280;31437;58.350;13.828;2022-10-16T05:35:14;99281.38;;;6.08;100.00
45525;BME280;31437;58.350;13.828;2022-10-16T05:37:39;99280.38;;;6.10;100.00
45525;BME280;31437;58.350;13.828;2022-10-16T05:40:05;99283.75;;;6.12;100.00
45525;BME280;31437;58.350;13.828;2022-10-16T05:42:30;99273.25;;;6.14;100.00
45525;BME280;31437;58.350;13.828;2022-10-16T05:44:55;99271.63;;;6.11;100.00
45525;BME280;31437;58.350;13.828;2022-10-16T05:47:21;99277.00;;;6.08;100.00
45525;BME280;31437;58.350;13.828;2022-10-16T05:49:46;99277.09;;;6.07;100.00
45525;BME280;31437;58.350;13.828;2022-10-16T05:52:11;99282.34;;;6.05;100.00
45525;BME280;31437;58.350;13.828;2022-10-16T05:54:37;99280.75;;;6.03;100.00
45525;BME280;31437;58.350;13.828;2022-10-16T05:57:02;99276.47;;;6.02;100.00
45525;BME280;31437;58.350;13.828;2022-10-16T05:59:27;99286.81;;;6.03;100.00
45525;BME280;31437;58.350;13.828;2022-10-16T06:01:53;99287.66;;;6.04;100.00
45525;BME280;31437;58.350;13.828;2022-10-16T06:04:18;99281.53;;;6.05;100.00
45525;BME280;31437;58.350;13.828;2022-10-16T06:06:47;99276.41;;;6.03;100.00
45525;BME280;31437;58.350;13.828;2022-10-16T06:09:12;99287.81;;;6.01;100.00
45525;BME280;31437;58.350;13.828;2022-10-16T06:11:37;99286.03;;;6.01;100.00
45525;BME280;31437;58.350;13.828;2022-10-16T06:14:02;99293.00;;;6.01;100.00
45525;BME280;31437;58.350;13.828;2022-10-16T06:16:31;99295.53;;;6.02;100.00
45525;BME280;31437;58.350;13.828;2022-10-16T06:18:58;99298.06;;;6.04;100.00
45525;BME280;31437;58.350;13.828;2022-10-16T06:21:25;99297.13;;;6.05;100.00
45525;BME280;31437;58.350;13.828;2022-10-16T06:23:51;99296.22;;;6.06;100.00
45525;BME280;31437;58.350;13.828;2022-10-16T06:26:18;99301.13;;;6.12;100.00
45525;BME280;31437;58.350;13.828;2022-10-16T06:28:44;99299.84;;;6.21;100.00
45525;BME280;31437;58.350;13.828;2022-10-16T06:31:10;99305.41;;;6.30;100.00
45525;BME280;31437;58.350;13.828;2022-10-16T06:33:36;99298.97;;;6.37;100.00
45525;BME280;31437;58.350;13.828;2022-10-16T06:38:28;99309.47;;;6.53;100.00
45525;BME280;31437;58.350;13.828;2022-10-16T06:40:53;99312.44;;;6.63;100.00
45525;BME280;31437;58.350;13.828;2022-10-16T06:43:18;99309.44;;;6.71;100.00
45525;BME280;31437;58.350;13.828;2022-10-16T06:45:49;99309.84;;;6.79;100.00
45525;BME280;31437;58.350;13.828;2022-10-16T06:48:15;99323.09;;;6.92;100.00
45525;BME280;31437;58.350;13.828;2022-10-16T06:50:40;99318.75;;;7.08;100.00
45525;BME280;31437;58.350;13.828;2022-10-16T06:53:05;99328.72;;;7.33;100.00
45525;BME280;31437;58.350;13.828;2022-10-16T06:55:30;99337.19;;;7.53;100.00
45525;BME280;31437;58.350;13.828;2022-10-16T06:57:56;99343.06;;;7.88;100.00
45525;BME280;31437;58.350;13.828;2022-10-16T07:00:21;99354.69;;;8.28;100.00
45525;BME280;31437;58.350;13.828;2022-10-16T07:02:46;99362.19;;;8.64;100.00
45525;BME280;31437;58.350;13.828;2022-10-16T07:05:11;99356.91;;;8.80;100.00
45525;BME280;31437;58.350;13.828;2022-10-16T07:07:37;99364.59;;;9.12;100.00
45525;BME280;31437;58.350;13.828;2022-10-16T07:10:02;99366.97;;;9.44;100.00
45525;BME280;31437;58.350;13.828;2022-10-16T07:12:27;99370.78;;;9.52;100.00
45525;BME280;31437;58.350;13.828;2022-10-16T07:14:53;99369.31;;;9.34;100.00
45525;BME280;31437;58.350;13.828;2022-10-16T07:17:19;99372.13;;;9.31;100.00
45525;BME280;31437;58.350;13.828;2022-10-16T07:19:45;99371.28;;;9.45;100.00
45525;BME280;31437;58.350;13.828;2022-10-16T07:22:10;99376.56;;;9.58;100.00
45525;BME280;31437;58.350;13.828;2022-10-16T07:24:35;99386.50;;;9.52;100.00
45525;BME280;31437;58.350;13.828;2022-10-16T07:27:01;99395.88;;;9.42;100.00
45525;BME280;31437;58.350;13.828;2022-10-16T07:29:26;99393.25;;;9.28;100.00
45525;BME280;31437;58.350;13.828;2022-10-16T07:31:51;99394.09;;;9.14;100.00
45525;BME280;31437;58.350;13.828;2022-10-16T07:34:17;99392.13;;;9.03;100.00
45525;BME280;31437;58.350;13.828;2022-10-16T07:36:43;99393.63;;;8.93;100.00
45525;BME280;31437;58.350;13.828;2022-10-16T07:39:08;99390.41;;;8.88;100.00
45525;BME280;31437;58.350;13.828;2022-10-16T07:41:33;99389.22;;;8.94;100.00
45525;BME280;31437;58.350;13.828;2022-10-16T07:44:01;99388.56;;;8.90;100.00
45525;BME280;31437;58.350;13.828;2022-10-16T07:46:27;99396.53;;;8.89;100.00
45525;BME280;31437;58.350;13.828;2022-10-16T07:48:52;99402.59;;;8.89;100.00
45525;BME280;31437;58.350;13.828;2022-10-16T07:51:19;99402.47;;;8.91;100.00
45525;BME280;31437;58.350;13.828;2022-10-16T07:53:44;99397.56;;;9.00;100.00
45525;BME280;31437;58.350;13.828;2022-10-16T07:56:09;99396.25;;;9.22;100.00
45525;BME280;31437;58.350;13.828;2022-10-16T07:58:35;99414.06;;;9.58;100.00
45525;BME280;31437;58.350;13.828;2022-10-16T08:01:04;99426.50;;;9.69;100.00
45525;BME280;31437;58.350;13.828;2022-10-16T08:03:29;99418.25;;;9.89;100.00
45525;BME280;31437;58.350;13.828;2022-10-16T08:05:56;99427.44;;;10.09;100.00
45525;BME280;31437;58.350;13.828;2022-10-16T08:08:22;99423.19;;;10.21;100.00
45525;BME280;31437;58.350;13.828;2022-10-16T08:10:47;99432.56;;;10.11;100.00
45525;BME280;31437;58.350;13.828;2022-10-16T08:13:12;99435.03;;;9.99;100.00
45525;BME280;31437;58.350;13.828;2022-10-16T08:15:39;99429.97;;;10.11;100.00
45525;BME280;31437;58.350;13.828;2022-10-16T08:18:05;99430.28;;;10.06;100.00
45525;BME280;31437;58.350;13.828;2022-10-16T08:20:30;99427.72;;;10.05;100.00
45525;BME280;31437;58.350;13.828;2022-10-16T08:22:56;99426.97;;;10.02;100.00
45525;BME280;31437;58.350;13.828;2022-10-16T08:25:22;99429.81;;;9.99;100.00
45525;BME280;31437;58.350;13.828;2022-10-16T08:27:48;99431.97;;;9.93;100.00
45525;BME280;31437;58.350;13.828;2022-10-16T08:30:13;99447.44;;;9.83;100.00
45525;BME280;31437;58.350;13.828;2022-10-16T08:32:39;99450.72;;;9.72;100.00
45525;BME280;31437;58.350;13.828;2022-10-16T08:35:06;99446.06;;;9.63;100.00
45525;BME280;31437;58.350;13.828;2022-10-16T08:37:32;99432.41;;;9.58;100.00
45525;BME280;31437;58.350;13.828;2022-10-16T08:39:58;99432.59;;;9.55;100.00
45525;BME280;31437;58.350;13.828;2022-10-16T08:45:08;99418.78;;;9.53;100.00
45525;BME280;31437;58.350;13.828;2022-10-16T08:50:10;99407.44;;;9.52;100.00
45525;BME280;31437;58.350;13.828;2022-10-16T08:52:38;99410.72;;;9.56;100.00
45525;BME280;31437;58.350;13.828;2022-10-16T08:55:04;99418.28;;;9.61;100.00
45525;BME280;31437;58.350;13.828;2022-10-16T08:57:30;99420.31;;;9.70;100.00
45525;BME280;31437;58.350;13.828;2022-10-16T08:59:57;99415.38;;;9.80;100.00
45525;BME280;31437;58.350;13.828;2022-10-16T09:02:38;99414.09;;;9.85;100.00
45525;BME280;31437;58.350;13.828;2022-10-16T09:22:32;99409.78;;;9.98;100.00
45525;BME280;31437;58.350;13.828;2022-10-16T09:24:59;99406.13;;;10.01;100.00
45525;BME280;31437;58.350;13.828;2022-10-16T09:27:25;99402.38;;;10.05;100.00
45525;BME280;31437;58.350;13.828;2022-10-16T09:29:51;99405.75;;;10.07;100.00
45525;BME280;31437;58.350;13.828;2022-10-16T09:32:18;99400.38;;;10.09;100.00
45525;BME280;31437;58.350;13.828;2022-10-16T09:34:48;99401.13;;;10.11;100.00
45525;BME280;31437;58.350;13.828;2022-10-16T09:37:16;99401.88;;;10.13;100.00
45525;BME280;31437;58.350;13.828;2022-10-16T09:39:49;99399.81;;;10.18;100.00
45525;BME280;31437;58.350;13.828;2022-10-16T09:42:18;99403.47;;;10.42;100.00
45525;BME280;31437;58.350;13.828;2022-10-16T09:44:49;99412.56;;;10.77;100.00
45525;BME280;31437;58.350;13.828;2022-10-16T09:47:16;99413.19;;;11.06;100.00
45525;BME280;31437;58.350;13.828;2022-10-16T09:49:55;99416.78;;;11.30;100.00
45525;BME280;31437;58.350;13.828;2022-10-16T09:52:22;99424.50;;;11.57;100.00
45525;BME280;31437;58.350;13.828;2022-10-16T09:54:58;99439.81;;;11.76;100.00
45525;BME280;31437;58.350;13.828;2022-10-16T09:57:24;99440.13;;;11.97;100.00
45525;BME280;31437;58.350;13.828;2022-10-16T09:59:53;99452.44;;;12.21;100.00
45525;BME280;31437;58.350;13.828;2022-10-16T10:02:29;99444.34;;;12.24;100.00
45525;BME280;31437;58.350;13.828;2022-10-16T10:04:55;99465.47;;;12.22;100.00
45525;BME280;31437;58.350;13.828;2022-10-16T10:07:31;99467.34;;;12.20;100.00
45525;BME280;31437;58.350;13.828;2022-10-16T10:09:59;99473.75;;;12.29;100.00
45525;BME280;31437;58.350;13.828;2022-10-16T10:12:28;99479.63;;;12.33;100.00
45525;BME280;31437;58.350;13.828;2022-10-16T10:14:58;99480.75;;;12.41;100.00
45525;BME280;31437;58.350;13.828;2022-10-16T10:17:28;99483.16;;;12.44;100.00
45525;BME280;31437;58.350;13.828;2022-10-16T10:19:55;99489.13;;;12.46;100.00
45525;BME280;31437;58.350;13.828;2022-10-16T10:22:32;99493.25;;;12.50;100.00
45525;BME280;31437;58.350;13.828;2022-10-16T10:38:00;99514.13;;;12.65;100.00
45525;BME280;31437;58.350;13.828;2022-10-16T10:40:39;99512.69;;;12.72;100.00
45525;BME280;31437;58.350;13.828;2022-10-16T10:45:48;99512.84;;;12.82;100.00
45525;BME280;31437;58.350;13.828;2022-10-16T10:48:27;99518.06;;;12.94;100.00
45525;BME280;31437;58.350;13.828;2022-10-16T10:51:01;99516.31;;;13.06;100.00
45525;BME280;31437;58.350;13.828;2022-10-16T10:58:35;99490.00;;;12.71;100.00
45525;BME280;31437;58.350;13.828;2022-10-16T11:08:46;99461.78;;;12.25;100.00
45525;BME280;31437;58.350;13.828;2022-10-16T11:11:18;99428.81;;;12.08;100.00
45525;BME280;31437;58.350;13.828;2022-10-16T11:13:49;99402.59;;;11.95;100.00
45525;BME280;31437;58.350;13.828;2022-10-16T11:16:20;99385.13;;;11.81;100.00
45525;BME280;31437;58.350;13.828;2022-10-16T11:18:52;99377.63;;;11.64;100.00
45525;BME280;31437;58.350;13.828;2022-10-16T11:21:21;99371.38;;;11.41;100.00
45525;BME280;31437;58.350;13.828;2022-10-16T11:26:49;99301.13;;;10.69;100.00
45525;BME280;31437;58.350;13.828;2022-10-16T11:29:19;99310.34;;;10.50;100.00
45525;BME280;31437;58.350;13.828;2022-10-16T11:31:51;99288.53;;;10.36;100.00
45525;BME280;31437;58.350;13.828;2022-10-16T11:36:49;99280.09;;;10.18;100.00
45525;BME280;31437;58.350;13.828;2022-10-16T11:39:24;99256.16;;;10.10;100.00
45525;BME280;31437;58.350;13.828;2022-10-16T11:41:52;99264.44;;;10.04;100.00
45525;BME280;31437;58.350;13.828;2022-10-16T11:44:26;99256.88;;;9.99;100.00
45525;BME280;31437;58.350;13.828;2022-10-16T11:49:41;99242.59;;;9.91;100.00
45525;BME280;31437;58.350;13.828;2022-10-16T11:52:17;99224.25;;;9.91;100.00
45525;BME280;31437;58.350;13.828;2022-10-16T11:54:47;99212.94;;;9.90;100.00
45525;BME280;31437;58.350;13.828;2022-10-16T11:57:16;99215.47;;;9.92;100.00
45525;BME280;31437;58.350;13.828;2022-10-16T11:59:44;99199.78;;;9.92;100.00
45525;BME280;31437;58.350;13.828;2022-10-16T12:04:42;99177.13;;;9.91;100.00
45525;BME280;31437;58.350;13.828;2022-10-16T12:07:11;99167.50;;;9.91;100.00
45525;BME280;31437;58.350;13.828;2022-10-16T12:09:39;99164.00;;;9.91;100.00
45525;BME280;31437;58.350;13.828;2022-10-16T12:12:22;99159.72;;;9.90;100.00
45525;BME280;31437;58.350;13.828;2022-10-16T12:14:59;99160.03;;;9.85;100.00
45525;BME280;31437;58.350;13.828;2022-10-16T12:17:26;99155.84;;;9.83;100.00
45525;BME280;31437;58.350;13.828;2022-10-16T12:19:59;99158.78;;;9.78;100.00
45525;BME280;31437;58.350;13.828;2022-10-16T12:22:25;99164.31;;;9.73;100.00
45525;BME280;31437;58.350;13.828;2022-10-16T12:24:52;99166.22;;;9.71;100.00
45525;BME280;31437;58.350;13.828;2022-10-16T12:27:28;99163.88;;;9.67;100.00
45525;BME280;31437;58.350;13.828;2022-10-16T12:29:54;99175.50;;;9.63;100.00
45525;BME280;31437;58.350;13.828;2022-10-16T12:34:46;99160.09;;;9.58;100.00
45525;BME280;31437;58.350;13.828;2022-10-16T12:37:20;99160.41;;;9.53;100.00
45525;BME280;31437;58.350;13.828;2022-10-16T12:39:46;99150.44;;;9.46;100.00
45525;BME280;31437;58.350;13.828;2022-10-16T12:44:50;99128.44;;;9.36;100.00
45525;BME280;31437;58.350;13.828;2022-10-16T12:47:19;99127.91;;;9.30;100.00
45525;BME280;31437;58.350;13.828;2022-10-16T12:49:52;99122.94;;;9.26;100.00
45525;BME280;31437;58.350;13.828;2022-10-16T12:52:29;99115.41;;;9.21;100.00
45525;BME280;31437;58.350;13.828;2022-10-16T12:55:00;99111.50;;;9.14;100.00
45525;BME280;31437;58.350;13.828;2022-10-16T12:57:38;99117.69;;;9.13;100.00
45525;BME280;31437;58.350;13.828;2022-10-16T13:05:49;99126.69;;;9.09;100.00
45525;BME280;31437;58.350;13.828;2022-10-16T13:08:25;99143.94;;;9.12;100.00
45525;BME280;31437;58.350;13.828;2022-10-16T13:18:35;99148.81;;;9.18;100.00
45525;BME280;31437;58.350;13.828;2022-10-16T13:21:16;99167.84;;;9.20;100.00
45525;BME280;31437;58.350;13.828;2022-10-16T13:28:39;99288.41;;;9.02;100.00
45525;BME280;31437;58.350;13.828;2022-10-16T13:31:05;99271.25;;;8.70;100.00
45525;BME280;31437;58.350;13.828;2022-10-16T13:33:39;99248.63;;;8.40;100.00
45525;BME280;31437;58.350;13.828;2022-10-16T13:36:05;99226.97;;;8.24;100.00
45525;BME280;31437;58.350;13.828;2022-10-16T13:38:32;99224.03;;;8.14;100.00
45525;BME280;31437;58.350;13.828;2022-10-16T13:41:05;99226.25;;;8.06;100.00
45525;BME280;31437;58.350;13.828;2022-10-16T13:43:44;99216.16;;;8.00;100.00
45525;BME280;31437;58.350;13.828;2022-10-16T13:46:14;99174.66;;;7.95;100.00
45525;BME280;31437;58.350;13.828;2022-10-16T13:48:40;99093.06;;;7.91;100.00
45525;BME280;31437;58.350;13.828;2022-10-16T13:51:16;99163.47;;;7.93;100.00
45525;BME280;31437;58.350;13.828;2022-10-16T13:53:43;99197.81;;;8.01;100.00
45525;BME280;31437;58.350;13.828;2022-10-16T13:56:13;99201.72;;;8.08;100.00
45525;BME280;31437;58.350;13.828;2022-10-16T13:58:39;99232.34;;;8.20;100.00
45525;BME280;31437;58.350;13.828;2022-10-16T14:01:05;99237.78;;;8.32;100.00
45525;BME280;31437;58.350;13.828;2022-10-16T14:03:32;99243.88;;;8.47;100.00
45525;BME280;31437;58.350;13.828;2022-10-16T14:05:59;99249.13;;;8.61;100.00
45525;BME280;31437;58.350;13.828;2022-10-16T14:08:25;99248.09;;;8.78;100.00
45525;BME280;31437;58.350;13.828;2022-10-16T14:10:56;99254.41;;;8.88;100.00
45525;BME280;31437;58.350;13.828;2022-10-16T14:13:44;99252.94;;;8.98;100.00
45525;BME280;31437;58.350;13.828;2022-10-16T14:16:08;99262.25;;;9.02;100.00
45525;BME280;31437;58.350;13.828;2022-10-16T14:18:34;99256.19;;;9.02;100.00
45525;BME280;31437;58.350;13.828;2022-10-16T14:21:07;99251.97;;;8.99;100.00
45525;BME280;31437;58.350;13.828;2022-10-16T14:23:37;99245.28;;;8.95;100.00
45525;BME280;31437;58.350;13.828;2022-10-16T14:28:35;99235.38;;;8.86;100.00
45525;BME280;31437;58.350;13.828;2022-10-16T14:31:01;99245.47;;;8.78;100.00
45525;BME280;31437;58.350;13.828;2022-10-16T14:36:12;99261.81;;;8.67;100.00
45525;BME280;31437;58.350;13.828;2022-10-16T14:38:38;99251.34;;;8.67;100.00
45525;BME280;31437;58.350;13.828;2022-10-16T14:41:04;99264.53;;;8.66;100.00
45525;BME280;31437;58.350;13.828;2022-10-16T14:43:34;99266.31;;;8.65;100.00